createdAt,value
2019-05-12T00:00:43.275Z,99929.00
2019-05-12T00:03:13.855Z,99931.00
2019-05-12T00:05:44.415Z,99937.00
2019-05-12T00:08:15.041Z,99943.00
2019-05-12T00:10:47.750Z,99942.00
2019-05-12T00:13:18.995Z,99951.00
2019-05-12T00:15:49.772Z,99953.00
2019-05-12T00:18:20.319Z,99946.00
2019-05-12T00:20:50.887Z,99957.00
2019-05-12T00:23:26.977Z,99954.00
2019-05-12T00:25:54.008Z,99960.00
2019-05-12T00:28:24.562Z,99968.00
2019-05-12T00:30:55.062Z,99966.00
2019-05-12T00:33:27.989Z,99965.00
2019-05-12T00:35:58.770Z,99964.00
2019-05-12T00:38:29.568Z,99973.00
2019-05-12T00:41:00.108Z,99975.00
2019-05-12T00:43:30.660Z,99987.00
2019-05-12T00:46:01.202Z,99983.00
2019-05-12T00:48:31.797Z,99991.00
2019-05-12T00:51:02.366Z,99993.00
2019-05-12T00:53:39.847Z,99999.00
2019-05-12T00:56:05.235Z,99994.00
2019-05-12T00:58:38.113Z,100004.00
2019-05-12T01:01:08.313Z,100003.00
2019-05-12T01:03:38.953Z,100002.00
2019-05-12T01:06:09.498Z,99997.00
2019-05-12T01:08:40.162Z,100008.00
2019-05-12T01:11:10.744Z,100011.00
2019-05-12T01:13:41.424Z,100012.00
2019-05-12T01:16:11.980Z,100012.00
2019-05-12T01:18:42.561Z,100023.00
2019-05-12T01:21:13.172Z,100022.00
2019-05-12T01:23:53.750Z,100030.00
2019-05-12T01:26:17.926Z,100034.00
2019-05-12T01:28:48.916Z,100030.00
2019-05-12T01:31:21.208Z,100034.00
2019-05-12T01:33:51.779Z,100038.00
2019-05-12T01:36:22.319Z,100036.00
2019-05-12T01:38:52.899Z,100039.00
2019-05-12T01:41:23.484Z,100045.00
2019-05-12T01:43:54.047Z,100044.00
2019-05-12T01:46:24.595Z,100048.00
2019-05-12T01:48:55.171Z,100057.00
2019-05-12T01:51:28.317Z,100051.00
2019-05-12T01:54:10.554Z,100061.00
2019-05-12T01:56:30.314Z,100064.00
2019-05-12T01:59:00.875Z,100065.00
2019-05-12T02:01:33.645Z,100061.00
2019-05-12T02:04:04.214Z,100082.00
2019-05-12T02:06:34.904Z,100081.00
2019-05-12T02:09:10.591Z,100088.00
2019-05-12T02:11:41.237Z,100089.00
2019-05-12T02:14:11.771Z,100096.00
2019-05-12T02:16:42.338Z,100103.00
2019-05-12T02:19:12.866Z,100111.00
2019-05-12T02:21:43.518Z,100115.00
2019-05-12T02:24:26.393Z,100124.00
2019-05-12T02:26:48.659Z,100128.00
2019-05-12T02:29:19.490Z,100134.00
2019-05-12T02:31:50.374Z,100129.00
2019-05-12T02:34:20.977Z,100141.00
2019-05-12T02:36:51.518Z,100146.00
2019-05-12T02:39:24.692Z,100147.00
2019-05-12T02:41:54.421Z,100157.00
2019-05-12T02:44:25.054Z,100163.00
2019-05-12T02:46:55.580Z,100154.00
2019-05-12T02:49:26.100Z,100156.00
2019-05-12T02:51:56.755Z,100163.00
2019-05-12T02:54:49.514Z,100170.00
2019-05-12T02:57:00.322Z,100173.00
2019-05-12T02:59:34.762Z,100171.00
2019-05-12T03:02:06.456Z,100167.00
2019-05-12T03:04:40.667Z,100181.00
2019-05-12T03:07:15.409Z,100179.00
2019-05-12T03:09:47.354Z,100171.00
2019-05-12T03:12:17.914Z,100168.00
2019-05-12T03:14:48.431Z,100170.00
2019-05-12T03:17:19.010Z,100177.00
2019-05-12T03:19:49.553Z,100177.00
2019-05-12T03:22:20.287Z,100182.00
2019-05-12T03:25:06.584Z,100179.00
2019-05-12T03:27:25.570Z,100178.00
2019-05-12T03:29:56.446Z,100186.00
2019-05-12T03:32:28.243Z,100181.00
2019-05-12T03:34:58.990Z,100181.00
2019-05-12T03:37:31.383Z,100185.00
2019-05-12T03:40:05.114Z,100200.00
2019-05-12T03:42:35.648Z,100195.00
2019-05-12T03:45:07.402Z,100206.00
2019-05-12T03:47:37.991Z,100218.00
2019-05-12T03:50:08.746Z,100228.00
2019-05-12T03:52:40.692Z,100229.00
2019-05-12T03:55:27.324Z,100238.00
2019-05-12T03:57:45.080Z,100233.00
2019-05-12T04:00:16.174Z,100254.00
2019-05-12T04:02:46.879Z,100256.00
2019-05-12T04:05:17.400Z,100265.00
2019-05-12T04:07:48.002Z,100266.00
2019-05-12T04:10:18.559Z,100271.00
2019-05-12T04:12:49.178Z,100272.00
2019-05-12T04:15:19.729Z,100284.00
2019-05-12T04:17:50.306Z,100298.00
2019-05-12T04:20:20.845Z,100287.00
2019-05-12T04:22:54.757Z,100293.00
2019-05-12T04:25:44.756Z,100299.00
2019-05-12T04:27:58.896Z,100306.00
2019-05-12T04:30:29.418Z,100314.00
2019-05-12T04:33:00.004Z,100314.00
2019-05-12T04:35:30.540Z,100322.00
2019-05-12T04:38:04.400Z,100324.00
2019-05-12T04:40:36.233Z,100336.00
2019-05-12T04:43:07.122Z,100344.00
2019-05-12T04:45:38.701Z,100349.00
2019-05-12T04:48:09.274Z,100351.00
2019-05-12T04:50:39.847Z,100352.00
2019-05-12T04:53:10.429Z,100349.00
2019-05-12T04:55:44.231Z,100352.00
2019-05-12T04:58:15.760Z,100357.00
2019-05-12T05:00:45.709Z,100363.00
2019-05-12T05:03:17.452Z,100372.00
2019-05-12T05:05:48.009Z,100373.00
2019-05-12T05:08:19.773Z,100365.00
2019-05-12T05:10:51.037Z,100371.00
2019-05-12T05:13:24.470Z,100374.00
2019-05-12T05:15:55.445Z,100381.00
2019-05-12T05:18:27.021Z,100381.00
2019-05-12T05:20:57.659Z,100384.00
2019-05-12T05:23:28.242Z,100390.00
2019-05-12T05:25:59.182Z,100399.00
2019-05-12T05:28:29.729Z,100406.00
2019-05-12T05:31:00.398Z,100411.00
2019-05-12T05:33:30.973Z,100412.00
2019-05-12T05:36:03.491Z,100412.00
2019-05-12T05:38:34.296Z,100416.00
2019-05-12T05:41:10.295Z,100427.00
2019-05-12T05:43:37.520Z,100437.00
2019-05-12T05:46:08.364Z,100436.00
2019-05-12T05:48:39.085Z,100441.00
2019-05-12T05:51:09.809Z,100442.00
2019-05-12T05:53:40.837Z,100447.00
2019-05-12T05:56:11.412Z,100455.00
2019-05-12T05:58:48.934Z,100459.00
2019-05-12T06:01:14.484Z,100462.00
2019-05-12T06:03:45.060Z,100468.00
2019-05-12T06:06:15.733Z,100474.00
2019-05-12T06:08:57.657Z,100479.00
2019-05-12T06:11:29.735Z,100484.00
2019-05-12T06:14:03.074Z,100480.00
2019-05-12T06:16:34.044Z,100481.00
2019-05-12T06:19:06.842Z,100484.00
2019-05-12T06:21:38.484Z,100486.00
2019-05-12T06:24:15.822Z,100491.00
2019-05-12T06:26:55.546Z,100501.00
2019-05-12T06:29:20.339Z,100497.00
2019-05-12T06:31:46.092Z,100505.00
2019-05-12T06:34:20.785Z,100512.00
2019-05-12T06:36:49.047Z,100527.00
2019-05-12T06:39:20.896Z,100526.00
2019-05-12T06:41:55.171Z,100528.00
2019-05-12T06:44:24.106Z,100523.00
2019-05-12T06:47:02.243Z,100522.00
2019-05-12T06:49:27.015Z,100530.00
2019-05-12T06:52:01.453Z,100529.00
2019-05-12T06:54:29.859Z,100525.00
2019-05-12T06:57:18.807Z,100533.00
2019-05-12T06:59:33.878Z,100530.00
2019-05-12T07:02:04.490Z,100538.00
2019-05-12T07:04:35.043Z,100532.00
2019-05-12T07:07:05.929Z,100527.00
2019-05-12T07:09:50.098Z,100534.00
2019-05-12T07:12:10.216Z,100537.00
2019-05-12T07:14:40.849Z,100541.00
2019-05-12T07:17:35.684Z,100546.00
2019-05-12T07:20:04.218Z,100544.00
2019-05-12T07:22:43.862Z,100551.00
2019-05-12T07:25:08.423Z,100551.00
2019-05-12T07:27:39.914Z,100556.00
2019-05-12T07:30:13.625Z,100558.00
2019-05-12T07:32:45.152Z,100559.00
2019-05-12T07:35:15.798Z,100559.00
2019-05-12T07:37:48.342Z,100563.00
2019-05-12T07:40:24.352Z,100556.00
2019-05-12T07:42:54.503Z,100563.00
2019-05-12T07:45:25.412Z,100567.00
2019-05-12T07:47:59.396Z,100572.00
2019-05-12T07:50:28.775Z,100566.00
2019-05-12T07:52:59.409Z,100579.00
2019-05-12T07:55:29.957Z,100573.00
2019-05-12T07:58:10.306Z,100580.00
2019-05-12T08:00:33.955Z,100577.00
2019-05-12T08:03:14.698Z,100587.00
2019-05-12T08:05:37.035Z,100587.00
2019-05-12T08:08:10.898Z,100590.00
2019-05-12T08:10:40.202Z,100593.00
2019-05-12T08:13:10.823Z,100597.00
2019-05-12T08:15:45.742Z,100598.00
2019-05-12T08:18:14.100Z,100605.00
2019-05-12T08:20:44.805Z,100608.00
2019-05-12T08:23:15.414Z,100617.00
2019-05-12T08:25:46.193Z,100627.00
2019-05-12T08:28:19.309Z,100626.00
2019-05-12T08:30:52.129Z,100633.00
2019-05-12T08:33:23.774Z,100633.00
2019-05-12T08:35:55.352Z,100635.00
2019-05-12T08:38:27.269Z,100628.00
2019-05-12T08:40:57.972Z,100630.00
2019-05-12T08:43:28.855Z,100636.00
2019-05-12T08:46:00.305Z,100634.00
2019-05-12T08:48:34.152Z,100646.00
2019-05-12T08:51:13.218Z,100659.00
2019-05-12T08:53:36.490Z,100650.00
2019-05-12T08:56:13.331Z,100652.00
2019-05-12T08:58:49.416Z,100643.00
2019-05-12T09:01:13.778Z,100648.00
2019-05-12T09:03:46.402Z,100655.00
2019-05-12T09:06:19.888Z,100649.00
2019-05-12T09:08:51.157Z,100650.00
2019-05-12T09:11:24.217Z,100651.00
2019-05-12T09:14:00.478Z,100651.00
2019-05-12T09:16:27.792Z,100655.00
2019-05-12T09:18:58.626Z,100665.00
2019-05-12T09:21:32.022Z,100653.00
2019-05-12T09:24:04.239Z,100661.00
2019-05-12T09:26:34.668Z,100659.00
2019-05-12T09:29:07.453Z,100662.00
2019-05-12T09:31:37.667Z,100667.00
2019-05-12T09:34:11.771Z,100668.00
2019-05-12T09:36:40.569Z,100674.00
2019-05-12T09:39:11.251Z,100670.00
2019-05-12T09:41:46.464Z,100671.00
2019-05-12T09:44:14.393Z,100682.00
2019-05-12T09:46:45.046Z,100683.00
2019-05-12T09:49:17.112Z,100683.00
2019-05-12T09:51:47.681Z,100687.00
2019-05-12T09:54:18.478Z,100688.00
2019-05-12T09:56:59.643Z,100685.00
2019-05-12T09:59:28.293Z,100687.00
2019-05-12T10:01:58.930Z,100687.00
2019-05-12T10:04:29.493Z,100698.00
2019-05-12T10:07:01.115Z,100686.00
2019-05-12T10:09:33.522Z,100686.00
2019-05-12T10:12:05.597Z,100682.00
2019-05-12T10:14:40.848Z,100677.00
2019-05-12T10:17:10.101Z,100676.00
2019-05-12T10:19:40.758Z,100685.00
2019-05-12T10:22:11.413Z,100692.00
2019-05-12T10:24:55.952Z,100685.00
2019-05-12T10:27:27.220Z,100688.00
2019-05-12T10:29:55.857Z,100688.00
2019-05-12T10:32:26.497Z,100693.00
2019-05-12T10:34:57.110Z,100689.00
2019-05-12T10:37:29.400Z,100701.00
2019-05-12T10:40:03.543Z,100691.00
2019-05-12T10:42:33.720Z,100684.00
2019-05-12T10:45:05.531Z,100692.00
2019-05-12T10:47:36.238Z,100704.00
2019-05-12T10:50:07.623Z,100698.00
2019-05-12T10:52:39.054Z,100697.00
2019-05-12T10:55:13.341Z,100696.00
2019-05-12T10:57:44.296Z,100701.00
2019-05-12T11:00:19.884Z,100705.00
2019-05-12T11:02:50.541Z,100707.00
2019-05-12T11:05:23.313Z,100711.00
2019-05-12T11:07:54.622Z,100717.00
2019-05-12T11:10:25.387Z,100720.00
2019-05-12T11:12:59.265Z,100709.00
2019-05-12T11:15:29.595Z,100718.00
2019-05-12T11:18:11.730Z,100728.00
2019-05-12T11:20:44.876Z,100727.00
2019-05-12T11:23:14.686Z,100725.00
2019-05-12T11:25:45.235Z,100731.00
2019-05-12T11:28:15.798Z,100731.00
2019-05-12T11:30:46.375Z,100729.00
2019-05-12T11:33:17.032Z,100729.00
2019-05-12T11:35:47.602Z,100732.00
2019-05-12T11:38:18.174Z,100730.00
2019-05-12T11:40:48.804Z,100740.00
2019-05-12T11:43:19.369Z,100748.00
2019-05-12T11:45:50.025Z,100736.00
2019-05-12T11:48:23.359Z,100749.00
2019-05-12T11:50:54.480Z,100743.00
2019-05-12T11:53:30.644Z,100757.00
2019-05-12T11:56:02.407Z,100759.00
2019-05-12T11:58:30.271Z,100761.00
2019-05-12T12:01:04.733Z,100762.00
2019-05-12T12:03:36.910Z,100771.00
2019-05-12T12:06:28.486Z,100762.00
2019-05-12T12:08:59.127Z,100772.00
2019-05-12T12:11:29.777Z,100780.00
2019-05-12T12:14:06.385Z,100781.00
2019-05-12T12:16:34.110Z,100783.00
2019-05-12T12:19:05.767Z,100779.00
2019-05-12T12:21:40.490Z,100783.00
2019-05-12T12:24:09.208Z,100791.00
2019-05-12T12:26:39.823Z,100794.00
2019-05-12T12:29:10.417Z,100786.00
2019-05-12T12:31:51.548Z,100785.00
2019-05-12T12:34:29.372Z,100786.00
2019-05-12T12:36:54.682Z,100785.00
2019-05-12T12:39:25.215Z,100793.00
2019-05-12T12:42:00.541Z,100794.00
2019-05-12T12:44:28.311Z,100800.00
2019-05-12T12:47:00.099Z,100797.00
2019-05-12T12:49:33.738Z,100797.00
2019-05-12T12:52:03.536Z,100797.00
2019-05-12T12:54:34.082Z,100804.00
2019-05-12T12:57:08.107Z,100813.00
2019-05-12T12:59:37.151Z,100800.00
2019-05-12T13:02:09.302Z,100797.00
2019-05-12T13:04:46.018Z,100806.00
2019-05-12T13:07:13.711Z,100801.00
2019-05-12T13:09:44.313Z,100807.00
2019-05-12T13:12:19.515Z,100807.00
2019-05-12T13:14:47.398Z,100803.00
2019-05-12T13:17:17.960Z,100821.00
2019-05-12T13:19:53.607Z,100817.00
2019-05-12T13:22:21.925Z,100818.00
2019-05-12T13:24:53.140Z,100810.00
2019-05-12T13:27:25.213Z,100814.00
2019-05-12T13:29:56.129Z,100816.00
2019-05-12T13:32:32.189Z,100808.00
2019-05-12T13:35:00.602Z,100810.00
2019-05-12T13:37:31.263Z,100814.00
2019-05-12T13:40:01.796Z,100816.00
2019-05-12T13:42:35.816Z,100815.00
2019-05-12T13:45:05.330Z,100818.00
2019-05-12T13:47:39.814Z,100825.00
2019-05-12T13:50:13.364Z,100829.00
2019-05-12T13:52:42.100Z,100826.00
2019-05-12T13:55:13.514Z,100813.00
2019-05-12T13:57:52.279Z,100826.00
2019-05-12T14:00:16.863Z,100827.00
2019-05-12T14:02:49.018Z,100828.00
2019-05-12T14:05:19.620Z,100838.00
2019-05-12T14:07:55.692Z,100834.00
2019-05-12T14:10:24.507Z,100831.00
2019-05-12T14:12:55.500Z,100834.00
2019-05-12T14:15:26.238Z,100836.00
2019-05-12T14:17:56.912Z,100850.00
2019-05-12T14:20:27.495Z,100847.00
2019-05-12T14:22:58.366Z,100847.00
2019-05-12T14:25:32.237Z,100845.00
2019-05-12T14:28:05.570Z,100852.00
2019-05-12T14:30:33.726Z,100860.00
2019-05-12T14:33:04.447Z,100844.00
2019-05-12T14:35:40.656Z,100834.00
2019-05-12T14:38:07.421Z,100844.00
2019-05-12T14:40:40.280Z,100849.00
2019-05-12T14:43:17.006Z,100847.00
2019-05-12T14:45:44.046Z,100872.00
2019-05-12T14:48:14.683Z,100860.00
2019-05-12T14:50:45.362Z,100868.00
2019-05-12T14:53:15.904Z,100859.00
2019-05-12T14:55:46.581Z,100859.00
2019-05-12T14:58:20.574Z,100859.00
2019-05-12T15:00:50.848Z,100855.00
2019-05-12T15:03:24.164Z,100864.00
2019-05-12T15:05:54.703Z,100856.00
2019-05-12T15:08:35.298Z,100856.00
2019-05-12T15:10:57.846Z,100861.00
2019-05-12T15:13:28.446Z,100853.00
2019-05-12T15:16:00.204Z,100862.00
2019-05-12T15:18:30.858Z,100850.00
2019-05-12T15:21:03.413Z,100866.00
2019-05-12T15:23:37.282Z,100862.00
2019-05-12T15:26:09.757Z,100867.00
2019-05-12T15:28:38.724Z,100873.00
2019-05-12T15:31:09.424Z,100880.00
2019-05-12T15:33:40.165Z,100868.00
2019-05-12T15:36:10.728Z,100875.00
2019-05-12T15:38:43.212Z,100876.00
2019-05-12T15:41:16.821Z,100882.00
2019-05-12T15:43:48.933Z,100886.00
2019-05-12T15:46:18.302Z,100888.00
2019-05-12T15:48:48.978Z,100886.00
2019-05-12T15:51:19.573Z,100898.00
2019-05-12T15:53:50.146Z,100895.00
2019-05-12T15:56:23.842Z,100899.00
2019-05-12T15:58:55.822Z,100896.00
2019-05-12T16:01:25.455Z,100899.00
2019-05-12T16:03:56.066Z,100899.00
2019-05-12T16:06:26.653Z,100896.00
2019-05-12T16:08:57.832Z,100898.00
2019-05-12T16:11:28.431Z,100897.00
2019-05-12T16:13:59.510Z,100895.00
2019-05-12T16:16:36.357Z,100902.00
2019-05-12T16:19:04.504Z,100894.00
2019-05-12T16:21:34.757Z,100896.00
2019-05-12T16:24:11.109Z,100901.00
2019-05-12T16:26:45.263Z,100913.00
2019-05-12T16:29:10.292Z,100909.00
2019-05-12T16:31:45.578Z,100910.00
2019-05-12T16:34:13.831Z,100905.00
2019-05-12T16:36:49.859Z,100905.00
2019-05-12T16:39:16.805Z,100909.00
2019-05-12T16:41:47.406Z,100915.00
2019-05-12T16:44:22.964Z,100916.00
2019-05-12T16:46:50.409Z,100915.00
2019-05-12T16:49:24.959Z,100907.00
2019-05-12T16:51:54.234Z,100905.00
2019-05-12T16:54:28.247Z,100921.00
2019-05-12T16:57:00.313Z,100921.00
2019-05-12T16:59:31.303Z,100920.00
2019-05-12T17:02:07.629Z,100919.00
2019-05-12T17:04:34.130Z,100933.00
2019-05-12T17:07:09.828Z,100931.00
2019-05-12T17:09:37.042Z,100932.00
2019-05-12T17:12:07.696Z,100938.00
2019-05-12T17:14:48.012Z,100937.00
2019-05-12T17:17:11.048Z,100932.00
2019-05-12T17:19:43.385Z,100928.00
2019-05-12T17:22:17.363Z,100929.00
2019-05-12T17:24:47.010Z,100938.00
2019-05-12T17:27:23.915Z,100934.00
2019-05-12T17:29:49.881Z,100934.00
2019-05-12T17:32:20.453Z,100936.00
2019-05-12T17:34:53.289Z,100944.00
2019-05-12T17:37:23.942Z,100948.00
2019-05-12T17:39:54.647Z,100941.00
2019-05-12T17:42:26.926Z,100951.00
2019-05-12T17:44:58.110Z,100951.00
2019-05-12T17:47:31.793Z,100958.00
2019-05-12T17:50:06.737Z,100961.00
2019-05-12T17:52:33.740Z,100967.00
2019-05-12T17:55:10.348Z,100968.00
2019-05-12T17:57:36.650Z,100972.00
2019-05-12T18:00:10.561Z,100977.00
2019-05-12T18:02:40.421Z,100977.00
2019-05-12T18:05:14.798Z,100976.00
2019-05-12T18:07:44.271Z,100981.00
2019-05-12T18:10:15.440Z,100986.00
2019-05-12T18:12:46.047Z,100986.00
2019-05-12T18:15:24.917Z,100992.00
2019-05-12T18:17:50.163Z,100989.00
2019-05-12T18:20:23.634Z,100998.00
2019-05-12T18:22:53.654Z,100997.00
2019-05-12T18:25:30.516Z,101003.00
2019-05-12T18:27:56.698Z,101005.00
2019-05-12T18:30:27.449Z,101012.00
2019-05-12T18:33:04.368Z,101013.00
2019-05-12T18:35:31.371Z,101014.00
2019-05-12T18:38:08.008Z,101024.00
2019-05-12T18:40:35.703Z,101030.00
2019-05-12T18:43:06.431Z,101033.00
2019-05-12T18:45:37.170Z,101034.00
2019-05-12T18:48:16.650Z,101044.00
2019-05-12T18:50:40.223Z,101045.00
2019-05-12T18:53:14.830Z,101057.00
2019-05-12T18:55:44.883Z,101058.00
2019-05-12T18:58:21.861Z,101061.00
2019-05-12T19:00:48.037Z,101062.00
2019-05-12T19:03:20.684Z,101059.00
2019-05-12T19:05:54.630Z,101064.00
2019-05-12T19:08:26.800Z,101075.00
2019-05-12T19:10:57.454Z,101077.00
2019-05-12T19:13:28.190Z,101079.00
2019-05-12T19:16:02.879Z,101079.00
2019-05-12T19:18:36.822Z,101086.00
2019-05-12T19:21:04.583Z,101094.00
2019-05-12T19:23:37.727Z,101101.00
2019-05-12T19:26:08.019Z,101110.00
2019-05-12T19:28:44.357Z,101106.00
2019-05-12T19:31:14.016Z,101107.00
2019-05-12T19:33:56.643Z,101117.00
2019-05-12T19:36:16.595Z,101121.00
2019-05-12T19:38:47.206Z,101115.00
2019-05-12T19:41:17.789Z,101114.00
2019-05-12T19:43:50.485Z,101130.00
2019-05-12T19:46:21.068Z,101131.00
2019-05-12T19:48:53.797Z,101121.00
2019-05-12T19:51:27.242Z,101126.00
2019-05-12T19:53:56.224Z,101134.00
2019-05-12T19:56:34.508Z,101129.00
2019-05-12T19:59:00.144Z,101140.00
2019-05-12T20:01:34.190Z,101137.00
2019-05-12T20:04:03.964Z,101149.00
2019-05-12T20:06:34.539Z,101140.00
2019-05-12T20:09:10.757Z,101142.00
2019-05-12T20:11:39.267Z,101153.00
2019-05-12T20:14:15.652Z,101152.00
2019-05-12T20:16:43.926Z,101152.00
2019-05-12T20:19:14.741Z,101148.00
2019-05-12T20:21:45.628Z,101153.00
2019-05-12T20:24:17.640Z,101162.00
2019-05-12T20:26:48.426Z,101159.00
2019-05-12T20:29:24.512Z,101170.00
2019-05-12T20:31:53.815Z,101170.00
2019-05-12T20:34:24.766Z,101173.00
2019-05-12T20:36:59.142Z,101183.00
2019-05-12T20:39:27.626Z,101186.00
2019-05-12T20:42:00.899Z,101190.00
2019-05-12T20:44:30.606Z,101187.00
2019-05-12T20:47:06.007Z,101189.00
2019-05-12T20:49:33.819Z,101177.00
2019-05-12T20:52:08.997Z,101184.00
2019-05-12T20:54:37.820Z,101182.00
2019-05-12T20:57:08.579Z,101181.00
2019-05-12T20:59:39.230Z,101184.00
2019-05-12T21:02:09.757Z,101200.00
2019-05-12T21:04:40.462Z,101195.00
2019-05-12T21:07:14.092Z,101198.00
2019-05-12T21:09:44.153Z,101199.00
2019-05-12T21:12:14.960Z,101197.00
2019-05-12T21:14:51.581Z,101200.00
2019-05-12T21:17:18.448Z,101201.00
2019-05-12T21:19:56.860Z,101199.00
2019-05-12T21:22:23.739Z,101209.00
2019-05-12T21:24:54.056Z,101208.00
2019-05-12T21:27:24.649Z,101212.00
2019-05-12T21:30:00.234Z,101210.00
2019-05-12T21:32:27.649Z,101208.00
2019-05-12T21:34:59.583Z,101209.00
2019-05-12T21:37:30.288Z,101203.00
2019-05-12T21:40:00.891Z,101210.00
2019-05-12T21:42:33.431Z,101209.00
2019-05-12T21:45:04.732Z,101211.00
2019-05-12T21:47:42.731Z,101212.00
2019-05-12T21:50:08.253Z,101220.00
2019-05-12T21:52:39.373Z,101219.00
2019-05-12T21:55:13.541Z,101225.00
2019-05-12T21:57:43.796Z,101226.00
2019-05-12T22:00:27.649Z,101228.00
2019-05-12T22:03:02.649Z,101223.00
2019-05-12T22:05:47.983Z,101236.00
2019-05-12T22:08:12.668Z,101235.00
2019-05-12T22:10:40.643Z,101236.00
2019-05-12T22:13:16.881Z,101237.00
2019-05-12T22:18:24.868Z,101246.00
2019-05-12T22:21:01.568Z,101251.00
2019-05-12T22:23:29.636Z,101242.00
2019-05-12T22:26:00.593Z,101245.00
2019-05-12T22:28:31.155Z,101247.00
2019-05-12T22:31:03.402Z,101245.00
2019-05-12T22:33:33.924Z,101255.00
2019-05-12T22:36:13.886Z,101253.00
2019-05-12T22:38:36.774Z,101256.00
2019-05-12T22:41:07.382Z,101262.00
2019-05-12T22:43:41.339Z,101267.00
2019-05-12T22:46:10.282Z,101270.00
2019-05-12T22:48:40.966Z,101266.00
2019-05-12T22:51:22.979Z,101269.00
2019-05-12T22:53:44.306Z,101269.00
2019-05-12T22:56:18.070Z,101272.00
2019-05-12T22:58:47.182Z,101282.00
2019-05-12T23:01:17.752Z,101276.00
2019-05-12T23:03:51.583Z,101278.00
2019-05-12T23:06:25.089Z,101282.00
2019-05-12T23:08:54.226Z,101278.00
2019-05-12T23:11:31.942Z,101286.00
2019-05-12T23:13:59.648Z,101279.00
2019-05-12T23:16:30.228Z,101288.00
2019-05-12T23:19:01.312Z,101293.00
2019-05-12T23:21:33.085Z,101290.00
2019-05-12T23:24:03.911Z,101293.00
2019-05-12T23:26:41.776Z,101296.00
2019-05-12T23:29:06.769Z,101296.00
2019-05-12T23:31:37.358Z,101293.00
2019-05-12T23:34:12.194Z,101296.00
2019-05-12T23:36:40.174Z,101299.00
2019-05-12T23:39:10.769Z,101291.00
2019-05-12T23:41:43.549Z,101305.00
2019-05-12T23:44:13.721Z,101292.00
2019-05-12T23:46:44.368Z,101293.00
2019-05-12T23:49:14.923Z,101294.00
2019-05-12T23:51:45.575Z,101291.00
2019-05-12T23:54:16.177Z,101292.00
2019-05-12T23:56:46.776Z,101302.00
2019-05-12T23:59:17.296Z,101301.00
